sensor_id;sensor_type;location;lat;lon;timestamp;pressure;altitude;pressure_sealevel;temperature;humidity
40788;BME280;26497;52.494;7.546;2023-08-21T00:02:15;101663.25;;;19.98;72.86
40788;BME280;26497;52.494;7.546;2023-08-21T00:04:42;101661.69;;;19.88;72.91
40788;BME280;26497;52.494;7.546;2023-08-21T00:07:10;101659.06;;;19.86;73.38
40788;BME280;26497;52.494;7.546;2023-08-21T00:09:38;101667.03;;;19.88;73.48
40788;BME280;26497;52.494;7.546;2023-08-21T00:12:06;101659.00;;;19.89;72.93
40788;BME280;26497;52.494;7.546;2023-08-21T00:14:33;101662.41;;;19.96;72.59
40788;BME280;26497;52.494;7.546;2023-08-21T00:17:01;101662.50;;;19.93;72.82
40788;BME280;26497;52.494;7.546;2023-08-21T00:19:30;101679.19;;;20.04;72.86
40788;BME280;26497;52.494;7.546;2023-08-21T00:21:57;101661.91;;;20.18;72.87
40788;BME280;26497;52.494;7.546;2023-08-21T00:24:24;101665.22;;;20.28;72.66
40788;BME280;26497;52.494;7.546;2023-08-21T00:26:52;101664.13;;;20.37;72.25
40788;BME280;26497;52.494;7.546;2023-08-21T00:29:19;101658.84;;;20.33;72.31
40788;BME280;26497;52.494;7.546;2023-08-21T00:34:13;101653.31;;;20.40;72.06
40788;BME280;26497;52.494;7.546;2023-08-21T00:36:41;101658.94;;;20.29;72.88
40788;BME280;26497;52.494;7.546;2023-08-21T00:39:08;101663.50;;;20.25;73.96
40788;BME280;26497;52.494;7.546;2023-08-21T00:41:35;101657.06;;;20.32;74.66
40788;BME280;26497;52.494;7.546;2023-08-21T00:44:04;101656.69;;;20.48;74.79
40788;BME280;26497;52.494;7.546;2023-08-21T00:46:31;101653.72;;;20.59;74.68
40788;BME280;26497;52.494;7.546;2023-08-21T00:48:59;101650.88;;;20.63;74.60
40788;BME280;26497;52.494;7.546;2023-08-21T00:51:26;101648.66;;;20.81;73.68
40788;BME280;26497;52.494;7.546;2023-08-21T00:53:53;101649.50;;;20.83;73.33
40788;BME280;26497;52.494;7.546;2023-08-21T00:56:21;101658.91;;;20.65;73.37
40788;BME280;26497;52.494;7.546;2023-08-21T00:58:48;101662.69;;;20.56;73.74
40788;BME280;26497;52.494;7.546;2023-08-21T01:01:18;101655.56;;;20.55;73.97
40788;BME280;26497;52.494;7.546;2023-08-21T01:03:49;101649.88;;;20.68;72.60
40788;BME280;26497;52.494;7.546;2023-08-21T01:06:16;101654.31;;;20.69;72.03
40788;BME280;26497;52.494;7.546;2023-08-21T01:08:53;101650.28;;;20.54;72.03
40788;BME280;26497;52.494;7.546;2023-08-21T01:11:30;101659.53;;;20.40;72.06
40788;BME280;26497;52.494;7.546;2023-08-21T01:14:08;101656.41;;;20.23;72.86
40788;BME280;26497;52.494;7.546;2023-08-21T01:16:40;101662.81;;;20.17;73.23
40788;BME280;26497;52.494;7.546;2023-08-21T01:19:14;101667.41;;;20.12;74.27
40788;BME280;26497;52.494;7.546;2023-08-21T01:21:46;101672.19;;;20.35;74.31
40788;BME280;26497;52.494;7.546;2023-08-21T01:24:15;101667.22;;;20.54;73.60
40788;BME280;26497;52.494;7.546;2023-08-21T01:26:45;101664.19;;;20.68;73.70
40788;BME280;26497;52.494;7.546;2023-08-21T01:29:13;101663.66;;;20.88;73.03
40788;BME280;26497;52.494;7.546;2023-08-21T01:31:40;101666.88;;;21.01;73.05
40788;BME280;26497;52.494;7.546;2023-08-21T01:34:14;101649.53;;;21.15;72.75
40788;BME280;26497;52.494;7.546;2023-08-21T01:36:43;101652.97;;;21.18;72.33
40788;BME280;26497;52.494;7.546;2023-08-21T01:39:10;101668.56;;;21.05;72.51
40788;BME280;26497;52.494;7.546;2023-08-21T01:41:39;101661.97;;;20.84;72.74
40788;BME280;26497;52.494;7.546;2023-08-21T01:44:06;101664.25;;;20.65;73.19
40788;BME280;26497;52.494;7.546;2023-08-21T01:46:33;101663.28;;;20.68;72.42
40788;BME280;26497;52.494;7.546;2023-08-21T01:49:00;101668.81;;;20.61;72.20
40788;BME280;26497;52.494;7.546;2023-08-21T01:51:27;101670.78;;;20.55;72.26
40788;BME280;26497;52.494;7.546;2023-08-21T01:53:54;101678.03;;;20.51;71.84
40788;BME280;26497;52.494;7.546;2023-08-21T01:58:50;101667.94;;;20.26;73.03
40788;BME280;26497;52.494;7.546;2023-08-21T02:01:17;101655.47;;;20.25;73.40
40788;BME280;26497;52.494;7.546;2023-08-21T02:03:45;101655.94;;;20.41;72.99
40788;BME280;26497;52.494;7.546;2023-08-21T02:06:12;101656.50;;;20.54;72.70
40788;BME280;26497;52.494;7.546;2023-08-21T02:08:39;101659.22;;;20.53;72.56
40788;BME280;26497;52.494;7.546;2023-08-21T02:11:06;101659.63;;;20.37;72.89
40788;BME280;26497;52.494;7.546;2023-08-21T02:13:33;101671.50;;;20.27;73.22
40788;BME280;26497;52.494;7.546;2023-08-21T02:16:02;101675.38;;;20.15;73.70
40788;BME280;26497;52.494;7.546;2023-08-21T02:18:30;101668.53;;;20.01;73.95
40788;BME280;26497;52.494;7.546;2023-08-21T02:20:57;101666.59;;;20.08;73.91
40788;BME280;26497;52.494;7.546;2023-08-21T02:23:24;101673.56;;;20.15;73.22
40788;BME280;26497;52.494;7.546;2023-08-21T02:25:51;101667.34;;;20.13;73.19
40788;BME280;26497;52.494;7.546;2023-08-21T02:28:18;101670.09;;;20.12;72.90
40788;BME280;26497;52.494;7.546;2023-08-21T02:30:46;101664.72;;;20.12;72.75
40788;BME280;26497;52.494;7.546;2023-08-21T02:33:14;101660.38;;;20.08;72.73
40788;BME280;26497;52.494;7.546;2023-08-21T02:35:41;101663.13;;;20.04;72.87
40788;BME280;26497;52.494;7.546;2023-08-21T02:38:08;101663.13;;;20.04;73.06
40788;BME280;26497;52.494;7.546;2023-08-21T02:40:35;101666.72;;;20.02;72.72
40788;BME280;26497;52.494;7.546;2023-08-21T02:43:03;101661.56;;;19.94;73.25
40788;BME280;26497;52.494;7.546;2023-08-21T02:45:30;101664.44;;;19.85;73.65
40788;BME280;26497;52.494;7.546;2023-08-21T02:47:58;101669.00;;;19.81;73.82
40788;BME280;26497;52.494;7.546;2023-08-21T02:50:26;101669.97;;;19.77;73.92
40788;BME280;26497;52.494;7.546;2023-08-21T02:52:54;101674.50;;;19.73;74.48
40788;BME280;26497;52.494;7.546;2023-08-21T02:55:22;101678.16;;;19.71;74.48
40788;BME280;26497;52.494;7.546;2023-08-21T02:57:49;101670.06;;;19.74;74.39
40788;BME280;26497;52.494;7.546;2023-08-21T03:00:16;101662.81;;;19.78;74.63
40788;BME280;26497;52.494;7.546;2023-08-21T03:02:44;101666.88;;;19.96;73.95
40788;BME280;26497;52.494;7.546;2023-08-21T03:05:11;101669.34;;;20.05;73.71
40788;BME280;26497;52.494;7.546;2023-08-21T03:07:40;101666.66;;;20.05;73.68
40788;BME280;26497;52.494;7.546;2023-08-21T03:10:08;101672.75;;;20.12;73.56
40788;BME280;26497;52.494;7.546;2023-08-21T03:12:36;101669.94;;;20.18;73.11
40788;BME280;26497;52.494;7.546;2023-08-21T03:15:04;101666.28;;;20.21;72.69
40788;BME280;26497;52.494;7.546;2023-08-21T03:17:31;101672.84;;;20.09;72.77
40788;BME280;26497;52.494;7.546;2023-08-21T03:19:58;101669.94;;;20.18;71.82
40788;BME280;26497;52.494;7.546;2023-08-21T03:22:25;101672.72;;;20.13;71.46
40788;BME280;26497;52.494;7.546;2023-08-21T03:24:54;101674.50;;;19.73;72.82
40788;BME280;26497;52.494;7.546;2023-08-21T03:27:22;101674.50;;;19.73;73.36
40788;BME280;26497;52.494;7.546;2023-08-21T03:29:49;101669.84;;;19.83;72.60
40788;BME280;26497;52.494;7.546;2023-08-21T03:32:17;101670.00;;;19.75;73.04
40788;BME280;26497;52.494;7.546;2023-08-21T03:34:44;101669.47;;;19.59;73.72
40788;BME280;26497;52.494;7.546;2023-08-21T03:37:11;101677.72;;;19.50;74.32
40788;BME280;26497;52.494;7.546;2023-08-21T03:39:38;101678.69;;;19.44;74.83
40788;BME280;26497;52.494;7.546;2023-08-21T03:42:07;101668.00;;;19.44;75.34
40788;BME280;26497;52.494;7.546;2023-08-21T03:44:34;101672.34;;;19.50;75.04
40788;BME280;26497;52.494;7.546;2023-08-21T03:47:01;101678.44;;;19.57;75.39
40788;BME280;26497;52.494;7.546;2023-08-21T03:49:28;101667.38;;;19.74;74.87
40788;BME280;26497;52.494;7.546;2023-08-21T03:51:56;101671.50;;;19.89;74.13
40788;BME280;26497;52.494;7.546;2023-08-21T03:54:23;101666.19;;;19.87;74.05
40788;BME280;26497;52.494;7.546;2023-08-21T03:56:50;101674.28;;;19.83;73.75
40788;BME280;26497;52.494;7.546;2023-08-21T03:59:18;101670.63;;;19.87;73.33
40788;BME280;26497;52.494;7.546;2023-08-21T04:01:45;101668.84;;;19.87;73.30
40788;BME280;26497;52.494;7.546;2023-08-21T04:04:12;101665.47;;;19.79;73.86
40788;BME280;26497;52.494;7.546;2023-08-21T04:06:39;101670.06;;;19.72;74.23
40788;BME280;26497;52.494;7.546;2023-08-21T04:09:07;101672.94;;;19.65;74.48
40788;BME280;26497;52.494;7.546;2023-08-21T04:11:34;101670.34;;;19.60;74.62
40788;BME280;26497;52.494;7.546;2023-08-21T04:14:01;101680.19;;;19.58;75.03
40788;BME280;26497;52.494;7.546;2023-08-21T04:16:30;101678.50;;;19.54;75.17
40788;BME280;26497;52.494;7.546;2023-08-21T04:18:57;101681.19;;;19.54;75.25
40788;BME280;26497;52.494;7.546;2023-08-21T04:21:24;101684.75;;;19.53;75.58
40788;BME280;26497;52.494;7.546;2023-08-21T04:23:52;101685.28;;;19.70;75.56
40788;BME280;26497;52.494;7.546;2023-08-21T04:26:19;101675.25;;;19.80;75.01
40788;BME280;26497;52.494;7.546;2023-08-21T04:28:47;101667.91;;;19.88;74.57
40788;BME280;26497;52.494;7.546;2023-08-21T04:31:14;101670.81;;;19.79;74.72
40788;BME280;26497;52.494;7.546;2023-08-21T04:33:43;101674.56;;;19.70;74.82
40788;BME280;26497;52.494;7.546;2023-08-21T04:36:15;101679.16;;;19.65;74.80
40788;BME280;26497;52.494;7.546;2023-08-21T04:38:43;101679.22;;;19.62;75.16
40788;BME280;26497;52.494;7.546;2023-08-21T04:41:10;101675.50;;;19.69;75.28
40788;BME280;26497;52.494;7.546;2023-08-21T04:43:38;101673.56;;;19.76;74.96
40788;BME280;26497;52.494;7.546;2023-08-21T04:46:05;101678.47;;;19.96;74.10
40788;BME280;26497;52.494;7.546;2023-08-21T04:48:32;101672.22;;;19.97;73.88
40788;BME280;26497;52.494;7.546;2023-08-21T04:51:00;101668.69;;;19.95;74.29
40788;BME280;26497;52.494;7.546;2023-08-21T04:53:27;101664.19;;;19.96;74.37
40788;BME280;26497;52.494;7.546;2023-08-21T04:55:55;101670.47;;;19.95;74.43
40788;BME280;26497;52.494;7.546;2023-08-21T04:58:22;101680.25;;;19.97;74.42
40788;BME280;26497;52.494;7.546;2023-08-21T05:00:49;101671.31;;;19.97;74.69
40788;BME280;26497;52.494;7.546;2023-08-21T05:03:16;101674.97;;;19.94;75.12
40788;BME280;26497;52.494;7.546;2023-08-21T05:05:52;101676.66;;;19.98;75.19
40788;BME280;26497;52.494;7.546;2023-08-21T05:08:22;101687.00;;;20.14;75.05
40788;BME280;26497;52.494;7.546;2023-08-21T05:10:54;101681.41;;;20.23;74.80
40788;BME280;26497;52.494;7.546;2023-08-21T05:13:21;101679.34;;;20.35;75.34
40788;BME280;26497;52.494;7.546;2023-08-21T05:15:51;101679.75;;;20.54;75.59
40788;BME280;26497;52.494;7.546;2023-08-21T05:18:19;101685.31;;;20.81;75.19
40788;BME280;26497;52.494;7.546;2023-08-21T05:20:47;101686.69;;;20.96;74.80
40788;BME280;26497;52.494;7.546;2023-08-21T05:23:14;101689.84;;;21.12;74.46
40788;BME280;26497;52.494;7.546;2023-08-21T05:25:46;101676.84;;;21.28;74.39
40788;BME280;26497;52.494;7.546;2023-08-21T05:28:13;101684.28;;;21.49;73.95
40788;BME280;26497;52.494;7.546;2023-08-21T05:30:40;101688.19;;;21.69;73.57
40788;BME280;26497;52.494;7.546;2023-08-21T05:33:08;101675.31;;;21.80;74.14
40788;BME280;26497;52.494;7.546;2023-08-21T05:35:35;101684.50;;;22.00;73.98
40788;BME280;26497;52.494;7.546;2023-08-21T05:38:03;101687.53;;;22.18;74.47
40788;BME280;26497;52.494;7.546;2023-08-21T05:40:30;101686.91;;;22.36;74.13
40788;BME280;26497;52.494;7.546;2023-08-21T05:42:59;101692.53;;;22.57;73.69
40788;BME280;26497;52.494;7.546;2023-08-21T05:45:30;101690.16;;;22.73;73.01
40788;BME280;26497;52.494;7.546;2023-08-21T05:47:57;101697.31;;;23.00;73.23
40788;BME280;26497;52.494;7.546;2023-08-21T05:50:25;101693.13;;;23.40;73.15
40788;BME280;26497;52.494;7.546;2023-08-21T05:52:52;101694.13;;;23.85;73.21
40788;BME280;26497;52.494;7.546;2023-08-21T05:55:20;101692.19;;;24.33;73.07
40788;BME280;26497;52.494;7.546;2023-08-21T05:57:47;101691.41;;;24.72;72.89
40788;BME280;26497;52.494;7.546;2023-08-21T06:00:17;101694.38;;;25.08;72.15
40788;BME280;26497;52.494;7.546;2023-08-21T06:02:44;101690.03;;;25.24;72.06
40788;BME280;26497;52.494;7.546;2023-08-21T06:05:11;101703.09;;;25.33;71.61
40788;BME280;26497;52.494;7.546;2023-08-21T06:07:38;101700.66;;;25.48;71.79
40788;BME280;26497;52.494;7.546;2023-08-21T06:10:07;101701.75;;;25.63;71.30
40788;BME280;26497;52.494;7.546;2023-08-21T06:12:37;101702.69;;;25.81;71.00
40788;BME280;26497;52.494;7.546;2023-08-21T06:15:05;101713.31;;;25.84;66.24
40788;BME280;26497;52.494;7.546;2023-08-21T06:17:36;101707.19;;;26.00;68.01
40788;BME280;26497;52.494;7.546;2023-08-21T06:20:05;101705.13;;;26.05;68.04
40788;BME280;26497;52.494;7.546;2023-08-21T06:22:34;101710.16;;;26.13;68.26
40788;BME280;26497;52.494;7.546;2023-08-21T06:25:01;101712.94;;;26.30;68.18
40788;BME280;26497;52.494;7.546;2023-08-21T06:27:28;101705.22;;;26.40;67.69
40788;BME280;26497;52.494;7.546;2023-08-21T06:29:56;101713.28;;;26.42;67.85
40788;BME280;26497;52.494;7.546;2023-08-21T06:32:23;101707.72;;;26.45;67.71
40788;BME280;26497;52.494;7.546;2023-08-21T06:34:52;101708.88;;;26.39;65.70
40788;BME280;26497;52.494;7.546;2023-08-21T06:37:20;101711.25;;;26.28;64.74
40788;BME280;26497;52.494;7.546;2023-08-21T06:39:47;101710.13;;;26.32;63.69
40788;BME280;26497;52.494;7.546;2023-08-21T06:42:14;101721.22;;;26.45;62.89
40788;BME280;26497;52.494;7.546;2023-08-21T06:44:42;101721.38;;;26.77;62.29
40788;BME280;26497;52.494;7.546;2023-08-21T06:47:12;101720.06;;;27.19;61.54
40788;BME280;26497;52.494;7.546;2023-08-21T06:49:41;101722.53;;;27.58;57.32
40788;BME280;26497;52.494;7.546;2023-08-21T06:52:09;101720.78;;;27.73;54.94
40788;BME280;26497;52.494;7.546;2023-08-21T06:54:37;101718.25;;;28.18;52.83
40788;BME280;26497;52.494;7.546;2023-08-21T06:57:05;101718.06;;;28.67;51.44
40788;BME280;26497;52.494;7.546;2023-08-21T06:59:33;101712.19;;;28.90;49.65
40788;BME280;26497;52.494;7.546;2023-08-21T07:02:01;101711.41;;;28.88;49.46
40788;BME280;26497;52.494;7.546;2023-08-21T07:08:07;101725.38;;;29.83;46.17
40788;BME280;26497;52.494;7.546;2023-08-21T07:10:36;101721.47;;;29.87;45.28
40788;BME280;26497;52.494;7.546;2023-08-21T07:13:04;101722.56;;;29.99;45.29
40788;BME280;26497;52.494;7.546;2023-08-21T07:15:31;101723.94;;;30.19;45.58
40788;BME280;26497;52.494;7.546;2023-08-21T07:17:58;101729.22;;;30.35;44.73
40788;BME280;26497;52.494;7.546;2023-08-21T07:20:25;101720.84;;;30.38;44.06
40788;BME280;26497;52.494;7.546;2023-08-21T07:22:53;101724.00;;;30.45;44.32
40788;BME280;26497;52.494;7.546;2023-08-21T07:25:21;101715.28;;;30.27;43.72
40788;BME280;26497;52.494;7.546;2023-08-21T07:27:48;101715.41;;;30.11;44.31
40788;BME280;26497;52.494;7.546;2023-08-21T07:30:16;101718.91;;;30.13;44.62
40788;BME280;26497;52.494;7.546;2023-08-21T07:32:44;101722.75;;;30.23;44.28
40788;BME280;26497;52.494;7.546;2023-08-21T07:35:11;101723.31;;;30.28;44.13
40788;BME280;26497;52.494;7.546;2023-08-21T07:37:45;101715.69;;;30.21;43.99
40788;BME280;26497;52.494;7.546;2023-08-21T07:40:13;101717.16;;;30.39;43.63
40788;BME280;26497;52.494;7.546;2023-08-21T07:42:42;101717.97;;;31.58;41.41
40788;BME280;26497;52.494;7.546;2023-08-21T07:45:09;101716.91;;;33.16;37.22
40788;BME280;26497;52.494;7.546;2023-08-21T07:47:37;101717.50;;;33.77;36.06
40788;BME280;26497;52.494;7.546;2023-08-21T07:50:06;101720.41;;;34.52;34.75
40788;BME280;26497;52.494;7.546;2023-08-21T07:52:34;101724.94;;;34.84;33.47
40788;BME280;26497;52.494;7.546;2023-08-21T07:55:01;101723.53;;;34.68;33.72
40788;BME280;26497;52.494;7.546;2023-08-21T07:57:30;101728.09;;;34.25;33.75
40788;BME280;26497;52.494;7.546;2023-08-21T07:59:58;101723.22;;;33.85;35.21
40788;BME280;26497;52.494;7.546;2023-08-21T08:02:25;101713.97;;;33.53;35.67
40788;BME280;26497;52.494;7.546;2023-08-21T08:04:53;101714.78;;;33.31;35.35
40788;BME280;26497;52.494;7.546;2023-08-21T08:07:20;101716.69;;;33.42;35.35
40788;BME280;26497;52.494;7.546;2023-08-21T08:09:47;101710.25;;;34.31;34.05
40788;BME280;26497;52.494;7.546;2023-08-21T08:12:18;101710.03;;;35.70;31.59
40788;BME280;26497;52.494;7.546;2023-08-21T08:14:46;101714.06;;;37.03;29.55
40788;BME280;26497;52.494;7.546;2023-08-21T08:17:15;101718.69;;;37.13;28.80
40788;BME280;26497;52.494;7.546;2023-08-21T08:19:42;101716.44;;;36.88;28.44
40788;BME280;26497;52.494;7.546;2023-08-21T08:22:09;101721.00;;;37.73;27.59
40788;BME280;26497;52.494;7.546;2023-08-21T08:24:36;101718.25;;;38.64;25.73
40788;BME280;26497;52.494;7.546;2023-08-21T08:27:04;101717.56;;;38.44;26.35
40788;BME280;26497;52.494;7.546;2023-08-21T08:29:32;101721.28;;;37.98;27.18
40788;BME280;26497;52.494;7.546;2023-08-21T08:31:59;101716.81;;;37.41;27.38
40788;BME280;26497;52.494;7.546;2023-08-21T08:34:28;101713.50;;;36.90;27.98
40788;BME280;26497;52.494;7.546;2023-08-21T08:36:55;101719.63;;;36.44;28.09
40788;BME280;26497;52.494;7.546;2023-08-21T08:39:22;101712.56;;;36.62;27.86
40788;BME280;26497;52.494;7.546;2023-08-21T08:41:56;101713.84;;;36.67;27.60
40788;BME280;26497;52.494;7.546;2023-08-21T08:51:53;101729.41;;;38.81;25.24
40788;BME280;26497;52.494;7.546;2023-08-21T08:54:22;101721.59;;;38.49;25.02
40788;BME280;26497;52.494;7.546;2023-08-21T08:56:51;101719.22;;;38.55;25.59
40788;BME280;26497;52.494;7.546;2023-08-21T08:59:19;101723.22;;;39.13;24.30
40788;BME280;26497;52.494;7.546;2023-08-21T09:01:46;101730.34;;;38.89;24.41
40788;BME280;26497;52.494;7.546;2023-08-21T09:04:13;101719.22;;;38.55;25.41
40788;BME280;26497;52.494;7.546;2023-08-21T09:06:40;101715.50;;;37.91;25.91
40788;BME280;26497;52.494;7.546;2023-08-21T09:09:09;101714.25;;;37.30;27.04
40788;BME280;26497;52.494;7.546;2023-08-21T09:11:43;101717.09;;;37.48;27.80
40788;BME280;26497;52.494;7.546;2023-08-21T09:14:10;101728.16;;;37.28;27.55
40788;BME280;26497;52.494;7.546;2023-08-21T09:16:38;101721.31;;;37.04;26.81
40788;BME280;26497;52.494;7.546;2023-08-21T09:19:05;101727.63;;;36.57;27.58
40788;BME280;26497;52.494;7.546;2023-08-21T09:21:32;101725.00;;;36.07;27.26
40788;BME280;26497;52.494;7.546;2023-08-21T09:24:01;101725.81;;;35.78;28.28
40788;BME280;26497;52.494;7.546;2023-08-21T09:26:33;101730.09;;;35.61;27.94
40788;BME280;26497;52.494;7.546;2023-08-21T09:29:04;101722.38;;;35.45;27.99
40788;BME280;26497;52.494;7.546;2023-08-21T09:31:32;101728.59;;;35.47;28.00
40788;BME280;26497;52.494;7.546;2023-08-21T09:34:02;101730.81;;;35.53;27.47
40788;BME280;26497;52.494;7.546;2023-08-21T09:36:31;101720.16;;;35.79;28.21
40788;BME280;26497;52.494;7.546;2023-08-21T09:38:58;101720.44;;;36.94;26.63
40788;BME280;26497;52.494;7.546;2023-08-21T09:41:26;101724.84;;;37.81;24.82
40788;BME280;26497;52.494;7.546;2023-08-21T09:43:59;101719.56;;;37.97;24.80
40788;BME280;26497;52.494;7.546;2023-08-21T09:46:27;101725.88;;;37.80;24.58
40788;BME280;26497;52.494;7.546;2023-08-21T09:48:55;101716.03;;;37.21;24.96
40788;BME280;26497;52.494;7.546;2023-08-21T09:51:22;101711.09;;;36.67;25.89
40788;BME280;26497;52.494;7.546;2023-08-21T09:53:50;101717.34;;;36.30;26.51
40788;BME280;26497;52.494;7.546;2023-08-21T09:56:18;101718.06;;;36.22;26.26
40788;BME280;26497;52.494;7.546;2023-08-21T09:58:47;101722.69;;;36.31;26.61
40788;BME280;26497;52.494;7.546;2023-08-21T10:01:17;101711.28;;;36.56;27.06
40788;BME280;26497;52.494;7.546;2023-08-21T10:03:47;101712.38;;;36.83;26.28
40788;BME280;26497;52.494;7.546;2023-08-21T10:06:17;101709.97;;;37.17;25.37
40788;BME280;26497;52.494;7.546;2023-08-21T10:08:47;101712.34;;;37.68;24.78
40788;BME280;26497;52.494;7.546;2023-08-21T10:11:19;101708.72;;;37.40;25.09
40788;BME280;26497;52.494;7.546;2023-08-21T10:13:47;101697.13;;;37.46;25.87
40788;BME280;26497;52.494;7.546;2023-08-21T10:16:17;101691.00;;;38.34;24.56
40788;BME280;26497;52.494;7.546;2023-08-21T10:18:46;101703.97;;;39.64;23.19
40788;BME280;26497;52.494;7.546;2023-08-21T10:21:15;101699.94;;;40.51;21.66
40788;BME280;26497;52.494;7.546;2023-08-21T10:23:47;101697.84;;;40.53;21.91
40788;BME280;26497;52.494;7.546;2023-08-21T10:26:14;101694.59;;;40.50;21.04
40788;BME280;26497;52.494;7.546;2023-08-21T10:28:48;101694.06;;;40.46;21.45
40788;BME280;26497;52.494;7.546;2023-08-21T10:31:43;101695.09;;;40.62;21.78
40788;BME280;26497;52.494;7.546;2023-08-21T10:34:12;101694.03;;;40.63;22.33
40788;BME280;26497;52.494;7.546;2023-08-21T10:37:09;101699.09;;;40.34;22.00
40788;BME280;26497;52.494;7.546;2023-08-21T10:39:39;101702.94;;;39.65;22.44
40788;BME280;26497;52.494;7.546;2023-08-21T10:42:09;101695.53;;;39.23;21.47
40788;BME280;26497;52.494;7.546;2023-08-21T10:44:52;101693.47;;;38.90;22.76
40788;BME280;26497;52.494;7.546;2023-08-21T10:47:26;101702.50;;;38.74;22.59
40788;BME280;26497;52.494;7.546;2023-08-21T10:49:59;101687.78;;;38.65;22.62
40788;BME280;26497;52.494;7.546;2023-08-21T10:52:28;101696.84;;;39.11;22.22
40788;BME280;26497;52.494;7.546;2023-08-21T10:54:57;101693.75;;;39.14;22.18
40788;BME280;26497;52.494;7.546;2023-08-21T10:57:26;101700.31;;;39.47;22.00
40788;BME280;26497;52.494;7.546;2023-08-21T10:59:55;101694.38;;;39.85;21.25
40788;BME280;26497;52.494;7.546;2023-08-21T11:02:25;101699.34;;;39.65;22.01
40788;BME280;26497;52.494;7.546;2023-08-21T11:04:55;101688.75;;;39.52;22.11
40788;BME280;26497;52.494;7.546;2023-08-21T11:07:22;101682.44;;;39.68;22.06
40788;BME280;26497;52.494;7.546;2023-08-21T11:09:50;101676.72;;;39.70;21.58
40788;BME280;26497;52.494;7.546;2023-08-21T11:12:18;101681.31;;;39.36;22.53
40788;BME280;26497;52.494;7.546;2023-08-21T11:14:46;101685.81;;;39.11;22.50
40788;BME280;26497;52.494;7.546;2023-08-21T11:17:13;101680.03;;;38.87;22.66
40788;BME280;26497;52.494;7.546;2023-08-21T11:19:42;101688.22;;;39.05;22.86
40788;BME280;26497;52.494;7.546;2023-08-21T11:22:11;101692.25;;;39.19;22.05
40788;BME280;26497;52.494;7.546;2023-08-21T11:24:45;101678.97;;;39.23;22.58
40788;BME280;26497;52.494;7.546;2023-08-21T11:27:14;101690.63;;;39.00;22.68
40788;BME280;26497;52.494;7.546;2023-08-21T11:29:43;101685.09;;;39.00;22.85
40788;BME280;26497;52.494;7.546;2023-08-21T11:32:13;101690.41;;;39.79;21.55
40788;BME280;26497;52.494;7.546;2023-08-21T11:34:46;101694.75;;;40.57;20.90
40788;BME280;26497;52.494;7.546;2023-08-21T11:37:16;101694.97;;;41.20;19.98
40788;BME280;26497;52.494;7.546;2023-08-21T11:39:45;101701.19;;;41.85;20.24
40788;BME280;26497;52.494;7.546;2023-08-21T11:42:13;101700.34;;;42.31;20.83
40788;BME280;26497;52.494;7.546;2023-08-21T11:44:46;101703.25;;;43.06;19.35
40788;BME280;26497;52.494;7.546;2023-08-21T11:47:17;101699.81;;;43.56;17.03
40788;BME280;26497;52.494;7.546;2023-08-21T11:49:47;101702.47;;;43.12;17.71
40788;BME280;26497;52.494;7.546;2023-08-21T11:52:20;101701.84;;;42.57;17.28
40788;BME280;26497;52.494;7.546;2023-08-21T11:54:50;101704.28;;;42.90;17.70
40788;BME280;26497;52.494;7.546;2023-08-21T11:57:18;101691.25;;;42.61;18.76
40788;BME280;26497;52.494;7.546;2023-08-21T11:59:51;101684.63;;;42.47;17.98
40788;BME280;26497;52.494;7.546;2023-08-21T12:02:22;101685.25;;;41.64;18.42
40788;BME280;26497;52.494;7.546;2023-08-21T12:04:53;101692.81;;;41.38;18.28
40788;BME280;26497;52.494;7.546;2023-08-21T12:07:21;101686.97;;;41.33;18.98
40788;BME280;26497;52.494;7.546;2023-08-21T12:09:48;101686.63;;;40.80;20.16
40788;BME280;26497;52.494;7.546;2023-08-21T12:12:16;101690.28;;;40.22;21.18
40788;BME280;26497;52.494;7.546;2023-08-21T12:14:43;101690.59;;;39.94;22.04
40788;BME280;26497;52.494;7.546;2023-08-21T12:17:10;101683.69;;;39.82;22.50
40788;BME280;26497;52.494;7.546;2023-08-21T12:19:37;101674.13;;;39.60;22.77
40788;BME280;26497;52.494;7.546;2023-08-21T12:22:06;101686.22;;;39.59;22.25
40788;BME280;26497;52.494;7.546;2023-08-21T12:24:33;101674.88;;;39.95;21.12
40788;BME280;26497;52.494;7.546;2023-08-21T12:27:00;101663.69;;;40.05;21.56
40788;BME280;26497;52.494;7.546;2023-08-21T12:29:27;101660.84;;;39.63;21.29
40788;BME280;26497;52.494;7.546;2023-08-21T12:31:54;101662.50;;;39.40;21.08
40788;BME280;26497;52.494;7.546;2023-08-21T12:34:21;101664.97;;;39.59;21.79
40788;BME280;26497;52.494;7.546;2023-08-21T12:36:50;101663.09;;;39.08;19.78
40788;BME280;26497;52.494;7.546;2023-08-21T12:39:19;101663.56;;;39.04;19.70
40788;BME280;26497;52.494;7.546;2023-08-21T12:41:47;101664.97;;;38.82;21.17
40788;BME280;26497;52.494;7.546;2023-08-21T12:44:14;101656.47;;;38.22;21.02
40788;BME280;26497;52.494;7.546;2023-08-21T12:46:42;101663.09;;;37.93;20.79
40788;BME280;26497;52.494;7.546;2023-08-21T12:49:09;101669.19;;;37.87;20.97
40788;BME280;26497;52.494;7.546;2023-08-21T12:51:36;101661.59;;;37.99;20.41
40788;BME280;26497;52.494;7.546;2023-08-21T12:54:04;101665.56;;;37.86;21.00
40788;BME280;26497;52.494;7.546;2023-08-21T12:56:33;101656.59;;;37.48;21.85
40788;BME280;26497;52.494;7.546;2023-08-21T12:59:00;101658.47;;;37.47;22.51
40788;BME280;26497;52.494;7.546;2023-08-21T13:01:28;101648.63;;;37.45;21.81
40788;BME280;26497;52.494;7.546;2023-08-21T13:03:57;101649.50;;;37.45;22.99
40788;BME280;26497;52.494;7.546;2023-08-21T13:06:24;101650.69;;;37.61;24.90
40788;BME280;26497;52.494;7.546;2023-08-21T13:08:51;101651.09;;;37.66;22.98
40788;BME280;26497;52.494;7.546;2023-08-21T13:11:19;101648.50;;;37.83;22.30
40788;BME280;26497;52.494;7.546;2023-08-21T13:14:02;101648.78;;;38.78;20.76